sensor_id;sensor_type;location;lat;lon;timestamp;temperature;humidity
14769;DHT22;7476;49.404;11.152;2022-09-09T00:01:49;10.90;99.90
14769;DHT22;7476;49.404;11.152;2022-09-09T00:04:25;10.80;99.90
14769;DHT22;7476;49.404;11.152;2022-09-09T00:06:59;10.80;99.90
14769;DHT22;7476;49.404;11.152;2022-09-09T00:09:31;10.60;99.90
14769;DHT22;7476;49.404;11.152;2022-09-09T00:12:02;11.00;99.90
14769;DHT22;7476;49.404;11.152;2022-09-09T00:14:39;11.00;99.90
14769;DHT22;7476;49.404;11.152;2022-09-09T00:17:11;10.90;99.90
14769;DHT22;7476;49.404;11.152;2022-09-09T00:19:45;11.00;99.90
14769;DHT22;7476;49.404;11.152;2022-09-09T00:22:18;11.10;99.90
14769;DHT22;7476;49.404;11.152;2022-09-09T00:24:46;10.90;99.90
14769;DHT22;7476;49.404;11.152;2022-09-09T00:27:19;10.50;99.90
14769;DHT22;7476;49.404;11.152;2022-09-09T00:29:52;10.30;99.90
14769;DHT22;7476;49.404;11.152;2022-09-09T00:32:20;10.10;99.90
14769;DHT22;7476;49.404;11.152;2022-09-09T00:34:52;10.20;99.90
14769;DHT22;7476;49.404;11.152;2022-09-09T00:37:20;10.30;99.90
14769;DHT22;7476;49.404;11.152;2022-09-09T00:39:50;10.10;99.90
14769;DHT22;7476;49.404;11.152;2022-09-09T00:42:24;10.10;99.90
14769;DHT22;7476;49.404;11.152;2022-09-09T00:44:54;10.40;99.90
14769;DHT22;7476;49.404;11.152;2022-09-09T00:47:40;10.30;99.90
14769;DHT22;7476;49.404;11.152;2022-09-09T00:50:22;10.70;99.90
14769;DHT22;7476;49.404;11.152;2022-09-09T00:53:00;10.90;99.90
14769;DHT22;7476;49.404;11.152;2022-09-09T00:55:36;10.70;99.90
14769;DHT22;7476;49.404;11.152;2022-09-09T00:58:07;10.90;99.90
14769;DHT22;7476;49.404;11.152;2022-09-09T01:00:42;11.00;99.90
14769;DHT22;7476;49.404;11.152;2022-09-09T01:03:28;10.90;99.90
14769;DHT22;7476;49.404;11.152;2022-09-09T01:06:13;10.60;99.90
14769;DHT22;7476;49.404;11.152;2022-09-09T01:09:08;10.60;99.90
14769;DHT22;7476;49.404;11.152;2022-09-09T01:11:46;10.50;99.90
14769;DHT22;7476;49.404;11.152;2022-09-09T01:14:23;10.50;99.90
14769;DHT22;7476;49.404;11.152;2022-09-09T01:16:54;10.60;99.90
14769;DHT22;7476;49.404;11.152;2022-09-09T01:19:33;10.60;99.90
14769;DHT22;7476;49.404;11.152;2022-09-09T01:22:13;10.70;99.90
14769;DHT22;7476;49.404;11.152;2022-09-09T01:25:01;11.00;99.90
14769;DHT22;7476;49.404;11.152;2022-09-09T01:27:36;11.20;99.90
14769;DHT22;7476;49.404;11.152;2022-09-09T01:30:07;11.10;99.90
14769;DHT22;7476;49.404;11.152;2022-09-09T01:32:41;11.30;99.90
14769;DHT22;7476;49.404;11.152;2022-09-09T01:35:17;11.10;99.90
14769;DHT22;7476;49.404;11.152;2022-09-09T01:37:47;10.90;99.90
14769;DHT22;7476;49.404;11.152;2022-09-09T01:40:13;10.80;99.90
14769;DHT22;7476;49.404;11.152;2022-09-09T01:42:42;10.70;99.90
14769;DHT22;7476;49.404;11.152;2022-09-09T01:45:09;10.80;99.90
14769;DHT22;7476;49.404;11.152;2022-09-09T01:47:36;10.70;99.90
14769;DHT22;7476;49.404;11.152;2022-09-09T01:50:03;10.90;99.90
14769;DHT22;7476;49.404;11.152;2022-09-09T01:52:31;11.20;99.90
14769;DHT22;7476;49.404;11.152;2022-09-09T01:54:59;11.30;99.90
14769;DHT22;7476;49.404;11.152;2022-09-09T01:57:28;11.40;99.90
14769;DHT22;7476;49.404;11.152;2022-09-09T02:00:05;11.40;99.90
14769;DHT22;7476;49.404;11.152;2022-09-09T02:02:36;11.50;99.90
14769;DHT22;7476;49.404;11.152;2022-09-09T02:05:14;11.40;99.90
14769;DHT22;7476;49.404;11.152;2022-09-09T02:07:46;11.50;99.90
14769;DHT22;7476;49.404;11.152;2022-09-09T02:10:19;11.50;99.90
14769;DHT22;7476;49.404;11.152;2022-09-09T02:12:49;11.50;99.90
14769;DHT22;7476;49.404;11.152;2022-09-09T02:15:32;11.50;99.90
14769;DHT22;7476;49.404;11.152;2022-09-09T02:18:04;11.60;99.90
14769;DHT22;7476;49.404;11.152;2022-09-09T02:20:32;11.60;99.90
14769;DHT22;7476;49.404;11.152;2022-09-09T02:23:01;11.50;99.90
14769;DHT22;7476;49.404;11.152;2022-09-09T02:25:29;11.50;99.90
14769;DHT22;7476;49.404;11.152;2022-09-09T02:27:56;11.50;99.90
14769;DHT22;7476;49.404;11.152;2022-09-09T02:30:27;11.70;99.90
14769;DHT22;7476;49.404;11.152;2022-09-09T02:32:56;11.90;99.90
14769;DHT22;7476;49.404;11.152;2022-09-09T02:35:24;11.80;99.90
14769;DHT22;7476;49.404;11.152;2022-09-09T02:37:55;11.90;99.90
14769;DHT22;7476;49.404;11.152;2022-09-09T02:40:24;11.90;99.90
14769;DHT22;7476;49.404;11.152;2022-09-09T02:42:51;11.90;99.90
14769;DHT22;7476;49.404;11.152;2022-09-09T02:45:25;12.00;99.90
14769;DHT22;7476;49.404;11.152;2022-09-09T02:48:01;12.00;99.90
14769;DHT22;7476;49.404;11.152;2022-09-09T02:50:33;12.20;99.90
14769;DHT22;7476;49.404;11.152;2022-09-09T02:53:06;12.20;99.90
14769;DHT22;7476;49.404;11.152;2022-09-09T02:55:39;12.30;99.90
14769;DHT22;7476;49.404;11.152;2022-09-09T02:58:09;12.30;99.90
14769;DHT22;7476;49.404;11.152;2022-09-09T03:00:37;12.30;99.90
14769;DHT22;7476;49.404;11.152;2022-09-09T03:03:06;12.40;99.90
14769;DHT22;7476;49.404;11.152;2022-09-09T03:05:34;12.50;99.90
14769;DHT22;7476;49.404;11.152;2022-09-09T03:08:02;12.50;99.90
14769;DHT22;7476;49.404;11.152;2022-09-09T03:10:29;12.50;99.90
14769;DHT22;7476;49.404;11.152;2022-09-09T03:12:56;12.50;99.90
14769;DHT22;7476;49.404;11.152;2022-09-09T03:15:22;12.20;99.90
14769;DHT22;7476;49.404;11.152;2022-09-09T03:17:49;12.10;99.90
14769;DHT22;7476;49.404;11.152;2022-09-09T03:20:17;12.10;99.90
14769;DHT22;7476;49.404;11.152;2022-09-09T03:22:44;12.00;99.90
14769;DHT22;7476;49.404;11.152;2022-09-09T03:25:11;12.00;99.90
14769;DHT22;7476;49.404;11.152;2022-09-09T03:27:38;11.90;99.90
14769;DHT22;7476;49.404;11.152;2022-09-09T03:30:06;12.00;99.90
14769;DHT22;7476;49.404;11.152;2022-09-09T03:32:33;12.00;99.90
14769;DHT22;7476;49.404;11.152;2022-09-09T03:34:59;11.90;99.90
14769;DHT22;7476;49.404;11.152;2022-09-09T03:37:27;11.90;99.90
14769;DHT22;7476;49.404;11.152;2022-09-09T03:39:54;11.90;99.90
14769;DHT22;7476;49.404;11.152;2022-09-09T03:42:21;11.90;99.90
14769;DHT22;7476;49.404;11.152;2022-09-09T03:44:48;11.80;99.90
14769;DHT22;7476;49.404;11.152;2022-09-09T03:47:16;11.90;99.90
14769;DHT22;7476;49.404;11.152;2022-09-09T03:49:44;11.90;99.90
14769;DHT22;7476;49.404;11.152;2022-09-09T03:52:11;11.90;99.90
14769;DHT22;7476;49.404;11.152;2022-09-09T03:54:39;11.90;99.90
14769;DHT22;7476;49.404;11.152;2022-09-09T03:57:08;12.00;99.90
14769;DHT22;7476;49.404;11.152;2022-09-09T03:59:34;12.00;99.90
14769;DHT22;7476;49.404;11.152;2022-09-09T04:02:01;12.10;99.90
14769;DHT22;7476;49.404;11.152;2022-09-09T04:04:28;12.20;99.90
14769;DHT22;7476;49.404;11.152;2022-09-09T04:06:55;12.20;99.90
14769;DHT22;7476;49.404;11.152;2022-09-09T04:09:22;12.30;99.90
14769;DHT22;7476;49.404;11.152;2022-09-09T04:11:50;12.30;99.90
14769;DHT22;7476;49.404;11.152;2022-09-09T04:14:17;12.30;99.90
14769;DHT22;7476;49.404;11.152;2022-09-09T04:16:43;12.20;99.90
14769;DHT22;7476;49.404;11.152;2022-09-09T04:19:11;12.20;99.90
14769;DHT22;7476;49.404;11.152;2022-09-09T04:21:38;12.20;99.90
14769;DHT22;7476;49.404;11.152;2022-09-09T04:24:06;12.10;99.90
14769;DHT22;7476;49.404;11.152;2022-09-09T04:26:33;12.20;99.90
14769;DHT22;7476;49.404;11.152;2022-09-09T04:29:01;12.20;99.90
14769;DHT22;7476;49.404;11.152;2022-09-09T04:31:28;12.20;99.90
14769;DHT22;7476;49.404;11.152;2022-09-09T04:33:55;12.40;99.90
14769;DHT22;7476;49.404;11.152;2022-09-09T04:36:22;12.40;99.90
14769;DHT22;7476;49.404;11.152;2022-09-09T04:38:49;12.40;99.90
14769;DHT22;7476;49.404;11.152;2022-09-09T04:41:16;12.50;99.90
14769;DHT22;7476;49.404;11.152;2022-09-09T04:43:43;12.50;99.90
14769;DHT22;7476;49.404;11.152;2022-09-09T04:46:11;12.40;99.90
14769;DHT22;7476;49.404;11.152;2022-09-09T04:48:38;12.40;99.90
14769;DHT22;7476;49.404;11.152;2022-09-09T04:51:08;12.40;99.90
14769;DHT22;7476;49.404;11.152;2022-09-09T04:53:35;12.30;99.90
14769;DHT22;7476;49.404;11.152;2022-09-09T04:56:02;12.30;99.90
14769;DHT22;7476;49.404;11.152;2022-09-09T04:58:29;12.20;99.90
14769;DHT22;7476;49.404;11.152;2022-09-09T05:01:03;12.10;99.90
14769;DHT22;7476;49.404;11.152;2022-09-09T05:03:31;12.10;99.90
14769;DHT22;7476;49.404;11.152;2022-09-09T05:06:03;12.10;99.90
14769;DHT22;7476;49.404;11.152;2022-09-09T05:08:30;12.20;99.90
14769;DHT22;7476;49.404;11.152;2022-09-09T05:10:57;12.30;99.90
14769;DHT22;7476;49.404;11.152;2022-09-09T05:13:25;12.40;99.90
14769;DHT22;7476;49.404;11.152;2022-09-09T05:15:52;12.40;99.90
14769;DHT22;7476;49.404;11.152;2022-09-09T05:18:19;12.40;99.90
14769;DHT22;7476;49.404;11.152;2022-09-09T05:20:49;12.40;99.90
14769;DHT22;7476;49.404;11.152;2022-09-09T05:23:16;12.40;99.90
14769;DHT22;7476;49.404;11.152;2022-09-09T05:25:43;12.50;99.90
14769;DHT22;7476;49.404;11.152;2022-09-09T05:28:12;12.50;99.90
14769;DHT22;7476;49.404;11.152;2022-09-09T05:30:38;12.70;99.90
14769;DHT22;7476;49.404;11.152;2022-09-09T05:33:05;12.80;99.90
14769;DHT22;7476;49.404;11.152;2022-09-09T05:35:32;12.80;99.90
14769;DHT22;7476;49.404;11.152;2022-09-09T05:38:00;12.90;99.90
14769;DHT22;7476;49.404;11.152;2022-09-09T05:40:27;13.00;99.90
14769;DHT22;7476;49.404;11.152;2022-09-09T05:42:54;13.20;99.90
14769;DHT22;7476;49.404;11.152;2022-09-09T05:45:21;13.30;99.90
14769;DHT22;7476;49.404;11.152;2022-09-09T05:47:51;13.30;99.90
14769;DHT22;7476;49.404;11.152;2022-09-09T05:50:19;13.40;99.90
14769;DHT22;7476;49.404;11.152;2022-09-09T05:52:45;13.40;99.90
14769;DHT22;7476;49.404;11.152;2022-09-09T05:55:15;13.40;99.90
14769;DHT22;7476;49.404;11.152;2022-09-09T05:57:48;13.30;99.90
14769;DHT22;7476;49.404;11.152;2022-09-09T06:00:15;13.20;99.90
14769;DHT22;7476;49.404;11.152;2022-09-09T06:02:41;13.20;99.90
14769;DHT22;7476;49.404;11.152;2022-09-09T06:05:09;13.20;99.90
14769;DHT22;7476;49.404;11.152;2022-09-09T06:07:36;13.20;99.90
14769;DHT22;7476;49.404;11.152;2022-09-09T06:10:07;13.20;99.90
14769;DHT22;7476;49.404;11.152;2022-09-09T06:12:36;13.20;99.90
14769;DHT22;7476;49.404;11.152;2022-09-09T06:15:03;13.20;99.90
14769;DHT22;7476;49.404;11.152;2022-09-09T06:17:30;13.20;99.90
14769;DHT22;7476;49.404;11.152;2022-09-09T06:19:56;13.30;99.90
14769;DHT22;7476;49.404;11.152;2022-09-09T06:22:23;13.50;99.90
14769;DHT22;7476;49.404;11.152;2022-09-09T06:24:50;13.60;99.90
14769;DHT22;7476;49.404;11.152;2022-09-09T06:27:16;14.40;99.90
14769;DHT22;7476;49.404;11.152;2022-09-09T06:29:44;15.40;99.90
14769;DHT22;7476;49.404;11.152;2022-09-09T06:32:11;15.90;99.90
14769;DHT22;7476;49.404;11.152;2022-09-09T06:34:38;15.80;99.90
14769;DHT22;7476;49.404;11.152;2022-09-09T06:37:05;15.90;99.90
14769;DHT22;7476;49.404;11.152;2022-09-09T06:39:32;15.90;99.90
14769;DHT22;7476;49.404;11.152;2022-09-09T06:41:58;15.70;99.90
14769;DHT22;7476;49.404;11.152;2022-09-09T06:44:25;15.60;99.90
14769;DHT22;7476;49.404;11.152;2022-09-09T06:46:53;15.50;99.90
14769;DHT22;7476;49.404;11.152;2022-09-09T06:49:20;15.40;99.90
14769;DHT22;7476;49.404;11.152;2022-09-09T06:51:47;15.30;99.90
14769;DHT22;7476;49.404;11.152;2022-09-09T06:54:14;15.40;99.90
14769;DHT22;7476;49.404;11.152;2022-09-09T06:56:42;15.40;99.90
14769;DHT22;7476;49.404;11.152;2022-09-09T06:59:11;15.60;99.90
14769;DHT22;7476;49.404;11.152;2022-09-09T07:01:39;15.70;99.90
14769;DHT22;7476;49.404;11.152;2022-09-09T07:04:08;15.90;99.90
14769;DHT22;7476;49.404;11.152;2022-09-09T07:06:37;16.20;99.90
14769;DHT22;7476;49.404;11.152;2022-09-09T07:09:06;16.20;99.90
14769;DHT22;7476;49.404;11.152;2022-09-09T07:11:37;16.10;99.90
14769;DHT22;7476;49.404;11.152;2022-09-09T07:14:05;16.30;99.90
14769;DHT22;7476;49.404;11.152;2022-09-09T07:16:33;16.40;99.90
14769;DHT22;7476;49.404;11.152;2022-09-09T07:19:02;16.60;99.90
14769;DHT22;7476;49.404;11.152;2022-09-09T07:21:32;16.90;99.90
14769;DHT22;7476;49.404;11.152;2022-09-09T07:23:59;17.10;99.90
14769;DHT22;7476;49.404;11.152;2022-09-09T07:26:29;17.10;99.90
14769;DHT22;7476;49.404;11.152;2022-09-09T07:28:56;17.10;99.90
14769;DHT22;7476;49.404;11.152;2022-09-09T07:31:25;17.20;99.90
14769;DHT22;7476;49.404;11.152;2022-09-09T07:33:52;17.50;99.90
14769;DHT22;7476;49.404;11.152;2022-09-09T07:36:20;17.40;99.90
14769;DHT22;7476;49.404;11.152;2022-09-09T07:38:51;17.20;99.90
14769;DHT22;7476;49.404;11.152;2022-09-09T07:41:19;17.40;99.90
14769;DHT22;7476;49.404;11.152;2022-09-09T07:43:47;18.10;99.90
14769;DHT22;7476;49.404;11.152;2022-09-09T07:46:16;18.80;99.90
14769;DHT22;7476;49.404;11.152;2022-09-09T07:48:44;19.10;99.90
14769;DHT22;7476;49.404;11.152;2022-09-09T07:51:13;19.30;99.90
14769;DHT22;7476;49.404;11.152;2022-09-09T07:53:44;19.10;99.90
14769;DHT22;7476;49.404;11.152;2022-09-09T07:56:14;19.40;99.90
14769;DHT22;7476;49.404;11.152;2022-09-09T07:58:44;19.90;99.90
14769;DHT22;7476;49.404;11.152;2022-09-09T08:01:13;20.40;99.90
14769;DHT22;7476;49.404;11.152;2022-09-09T08:03:41;21.30;99.90
14769;DHT22;7476;49.404;11.152;2022-09-09T08:06:10;21.80;99.90
14769;DHT22;7476;49.404;11.152;2022-09-09T08:08:38;22.10;99.90
14769;DHT22;7476;49.404;11.152;2022-09-09T08:11:09;23.10;99.90
14769;DHT22;7476;49.404;11.152;2022-09-09T08:13:39;22.50;99.90
14769;DHT22;7476;49.404;11.152;2022-09-09T08:16:07;23.20;99.90
14769;DHT22;7476;49.404;11.152;2022-09-09T08:18:34;23.80;99.90
14769;DHT22;7476;49.404;11.152;2022-09-09T08:21:08;23.40;99.90
14769;DHT22;7476;49.404;11.152;2022-09-09T08:23:37;23.10;99.90
14769;DHT22;7476;49.404;11.152;2022-09-09T08:26:06;23.50;99.90
14769;DHT22;7476;49.404;11.152;2022-09-09T08:28:34;24.00;99.90
14769;DHT22;7476;49.404;11.152;2022-09-09T08:31:10;24.50;99.90
14769;DHT22;7476;49.404;11.152;2022-09-09T08:33:37;24.20;99.90
14769;DHT22;7476;49.404;11.152;2022-09-09T08:36:05;24.60;99.90
14769;DHT22;7476;49.404;11.152;2022-09-09T08:38:34;24.50;99.90
14769;DHT22;7476;49.404;11.152;2022-09-09T08:41:11;24.20;99.90
14769;DHT22;7476;49.404;11.152;2022-09-09T08:43:43;23.20;99.90
14769;DHT22;7476;49.404;11.152;2022-09-09T08:46:19;22.80;99.90
14769;DHT22;7476;49.404;11.152;2022-09-09T08:48:55;23.10;99.90
14769;DHT22;7476;49.404;11.152;2022-09-09T08:51:25;23.70;99.90
14769;DHT22;7476;49.404;11.152;2022-09-09T08:53:54;23.60;99.90
14769;DHT22;7476;49.404;11.152;2022-09-09T08:56:23;23.60;99.90
14769;DHT22;7476;49.404;11.152;2022-09-09T08:58:52;23.70;99.90
14769;DHT22;7476;49.404;11.152;2022-09-09T09:01:50;23.70;99.90
14769;DHT22;7476;49.404;11.152;2022-09-09T09:04:38;23.80;99.90
14769;DHT22;7476;49.404;11.152;2022-09-09T09:07:18;23.60;99.90
14769;DHT22;7476;49.404;11.152;2022-09-09T09:09:56;23.20;99.90
14769;DHT22;7476;49.404;11.152;2022-09-09T09:12:27;23.00;99.90
14769;DHT22;7476;49.404;11.152;2022-09-09T09:14:55;23.20;99.90
14769;DHT22;7476;49.404;11.152;2022-09-09T09:17:26;22.70;99.90
14769;DHT22;7476;49.404;11.152;2022-09-09T09:19:53;22.50;99.90
14769;DHT22;7476;49.404;11.152;2022-09-09T09:22:22;22.60;99.90
14769;DHT22;7476;49.404;11.152;2022-09-09T09:24:52;22.10;99.90
14769;DHT22;7476;49.404;11.152;2022-09-09T09:27:28;22.60;99.90
14769;DHT22;7476;49.404;11.152;2022-09-09T09:29:58;23.20;99.90
14769;DHT22;7476;49.404;11.152;2022-09-09T09:32:30;23.60;99.90
14769;DHT22;7476;49.404;11.152;2022-09-09T09:34:58;23.70;99.90
14769;DHT22;7476;49.404;11.152;2022-09-09T09:37:31;23.70;99.90
14769;DHT22;7476;49.404;11.152;2022-09-09T09:40:08;24.10;99.90
14769;DHT22;7476;49.404;11.152;2022-09-09T09:42:35;24.40;99.90
14769;DHT22;7476;49.404;11.152;2022-09-09T09:45:08;24.70;99.90
14769;DHT22;7476;49.404;11.152;2022-09-09T09:47:43;25.20;99.90
14769;DHT22;7476;49.404;11.152;2022-09-09T09:50:16;25.60;99.90
14769;DHT22;7476;49.404;11.152;2022-09-09T09:52:53;25.20;99.90
14769;DHT22;7476;49.404;11.152;2022-09-09T09:55:21;25.50;99.90
14769;DHT22;7476;49.404;11.152;2022-09-09T09:57:48;26.30;99.90
14769;DHT22;7476;49.404;11.152;2022-09-09T10:00:16;26.50;99.90
14769;DHT22;7476;49.404;11.152;2022-09-09T10:02:46;26.50;99.90
14769;DHT22;7476;49.404;11.152;2022-09-09T10:05:15;26.70;99.10
14769;DHT22;7476;49.404;11.152;2022-09-09T10:07:42;26.70;98.40
14769;DHT22;7476;49.404;11.152;2022-09-09T10:10:13;26.70;97.20
14769;DHT22;7476;49.404;11.152;2022-09-09T10:12:51;25.80;99.30
14769;DHT22;7476;49.404;11.152;2022-09-09T10:15:30;26.10;97.50
14769;DHT22;7476;49.404;11.152;2022-09-09T10:18:08;25.70;98.30
14769;DHT22;7476;49.404;11.152;2022-09-09T10:20:43;25.50;97.90
14769;DHT22;7476;49.404;11.152;2022-09-09T10:23:23;25.30;98.40
14769;DHT22;7476;49.404;11.152;2022-09-09T10:26:04;24.80;98.50
14769;DHT22;7476;49.404;11.152;2022-09-09T10:28:46;24.40;99.30
14769;DHT22;7476;49.404;11.152;2022-09-09T10:31:24;24.80;98.90
14769;DHT22;7476;49.404;11.152;2022-09-09T10:34:04;25.60;98.10
14769;DHT22;7476;49.404;11.152;2022-09-09T10:36:41;25.90;97.50
14769;DHT22;7476;49.404;11.152;2022-09-09T10:39:18;25.80;96.60
14769;DHT22;7476;49.404;11.152;2022-09-09T10:41:54;25.90;96.80
14769;DHT22;7476;49.404;11.152;2022-09-09T10:44:37;26.20;97.30
14769;DHT22;7476;49.404;11.152;2022-09-09T10:47:23;26.50;95.80
14769;DHT22;7476;49.404;11.152;2022-09-09T10:50:07;26.10;95.30
14769;DHT22;7476;49.404;11.152;2022-09-09T10:52:43;25.50;96.60
14769;DHT22;7476;49.404;11.152;2022-09-09T10:55:17;26.20;96.80
14769;DHT22;7476;49.404;11.152;2022-09-09T10:57:46;26.60;95.90
14769;DHT22;7476;49.404;11.152;2022-09-09T11:00:18;26.70;94.80
14769;DHT22;7476;49.404;11.152;2022-09-09T11:02:48;26.50;95.80
14769;DHT22;7476;49.404;11.152;2022-09-09T11:05:20;25.70;95.60
14769;DHT22;7476;49.404;11.152;2022-09-09T11:07:49;25.20;96.40
14769;DHT22;7476;49.404;11.152;2022-09-09T11:10:22;25.00;97.80
14769;DHT22;7476;49.404;11.152;2022-09-09T11:12:53;25.00;97.10
14769;DHT22;7476;49.404;11.152;2022-09-09T11:15:25;24.80;96.60
14769;DHT22;7476;49.404;11.152;2022-09-09T11:17:57;24.60;97.70
14769;DHT22;7476;49.404;11.152;2022-09-09T11:20:26;24.20;97.10
14769;DHT22;7476;49.404;11.152;2022-09-09T11:22:55;24.20;98.10
14769;DHT22;7476;49.404;11.152;2022-09-09T11:25:28;24.50;98.40
14769;DHT22;7476;49.404;11.152;2022-09-09T11:28:07;24.70;97.80
14769;DHT22;7476;49.404;11.152;2022-09-09T11:30:45;24.70;96.80
14769;DHT22;7476;49.404;11.152;2022-09-09T11:33:30;24.50;99.00
14769;DHT22;7476;49.404;11.152;2022-09-09T11:36:25;24.20;97.80
14769;DHT22;7476;49.404;11.152;2022-09-09T11:39:06;24.20;98.70
14769;DHT22;7476;49.404;11.152;2022-09-09T11:41:35;24.20;97.90
14769;DHT22;7476;49.404;11.152;2022-09-09T11:44:10;24.30;98.70
14769;DHT22;7476;49.404;11.152;2022-09-09T11:46:38;24.70;98.60
14769;DHT22;7476;49.404;11.152;2022-09-09T11:49:26;25.40;97.30
14769;DHT22;7476;49.404;11.152;2022-09-09T11:51:54;25.70;96.90
14769;DHT22;7476;49.404;11.152;2022-09-09T11:54:32;26.70;95.30
14769;DHT22;7476;49.404;11.152;2022-09-09T11:57:04;27.10;96.00
14769;DHT22;7476;49.404;11.152;2022-09-09T11:59:50;27.00;96.20
14769;DHT22;7476;49.404;11.152;2022-09-09T12:02:22;26.00;95.80
14769;DHT22;7476;49.404;11.152;2022-09-09T12:04:55;25.00;96.60
14769;DHT22;7476;49.404;11.152;2022-09-09T12:07:32;24.40;97.10
14769;DHT22;7476;49.404;11.152;2022-09-09T12:10:03;24.20;97.10
14769;DHT22;7476;49.404;11.152;2022-09-09T12:12:33;24.30;99.00
14769;DHT22;7476;49.404;11.152;2022-09-09T12:15:17;24.40;98.80
14769;DHT22;7476;49.404;11.152;2022-09-09T12:17:48;24.40;99.80
14769;DHT22;7476;49.404;11.152;2022-09-09T12:20:16;24.20;98.30
14769;DHT22;7476;49.404;11.152;2022-09-09T12:22:55;24.00;99.80
14769;DHT22;7476;49.404;11.152;2022-09-09T12:25:31;24.10;99.30
14769;DHT22;7476;49.404;11.152;2022-09-09T12:28:05;24.70;97.70
14769;DHT22;7476;49.404;11.152;2022-09-09T12:30:39;26.60;95.40
14769;DHT22;7476;49.404;11.152;2022-09-09T12:33:11;28.00;93.50
14769;DHT22;7476;49.404;11.152;2022-09-09T12:35:38;28.60;92.30
14769;DHT22;7476;49.404;11.152;2022-09-09T12:38:11;28.20;92.50
14769;DHT22;7476;49.404;11.152;2022-09-09T12:40:40;27.80;92.40
14769;DHT22;7476;49.404;11.152;2022-09-09T12:43:17;26.60;93.90
14769;DHT22;7476;49.404;11.152;2022-09-09T12:45:45;26.10;94.10
14769;DHT22;7476;49.404;11.152;2022-09-09T12:48:12;25.30;94.90
14769;DHT22;7476;49.404;11.152;2022-09-09T12:50:45;24.80;95.60
14769;DHT22;7476;49.404;11.152;2022-09-09T12:53:25;24.30;95.50
14769;DHT22;7476;49.404;11.152;2022-09-09T12:55:56;24.10;95.70
14769;DHT22;7476;49.404;11.152;2022-09-09T12:58:23;24.20;96.00
14769;DHT22;7476;49.404;11.152;2022-09-09T13:00:52;24.10;95.50
14769;DHT22;7476;49.404;11.152;2022-09-09T13:03:21;23.80;95.50
14769;DHT22;7476;49.404;11.152;2022-09-09T13:05:49;23.70;96.50
14769;DHT22;7476;49.404;11.152;2022-09-09T13:08:17;24.50;96.60
14769;DHT22;7476;49.404;11.152;2022-09-09T13:10:49;26.20;95.30
14769;DHT22;7476;49.404;11.152;2022-09-09T13:13:22;25.40;95.20
14769;DHT22;7476;49.404;11.152;2022-09-09T13:15:52;24.00;97.10
14769;DHT22;7476;49.404;11.152;2022-09-09T13:18:22;23.00;97.20
14769;DHT22;7476;49.404;11.152;2022-09-09T13:20:50;22.00;99.90
14769;DHT22;7476;49.404;11.152;2022-09-09T13:23:20;21.30;99.90
14769;DHT22;7476;49.404;11.152;2022-09-09T13:25:54;20.20;99.90
14769;DHT22;7476;49.404;11.152;2022-09-09T13:28:23;19.10;99.90
14769;DHT22;7476;49.404;11.152;2022-09-09T13:30:58;18.10;99.90
14769;DHT22;7476;49.404;11.152;2022-09-09T13:33:32;17.30;99.90
14769;DHT22;7476;49.404;11.152;2022-09-09T13:36:01;17.20;99.90
14769;DHT22;7476;49.404;11.152;2022-09-09T13:38:33;17.50;99.90
14769;DHT22;7476;49.404;11.152;2022-09-09T13:41:02;18.80;99.90
14769;DHT22;7476;49.404;11.152;2022-09-09T13:43:31;19.90;99.90
14769;DHT22;7476;49.404;11.152;2022-09-09T13:46:02;21.10;99.90
14769;DHT22;7476;49.404;11.152;2022-09-09T13:48:29;22.10;99.90
14769;DHT22;7476;49.404;11.152;2022-09-09T13:50:58;24.00;99.90
14769;DHT22;7476;49.404;11.152;2022-09-09T13:53:25;25.20;99.90
14769;DHT22;7476;49.404;11.152;2022-09-09T13:55:53;25.20;99.90
14769;DHT22;7476;49.404;11.152;2022-09-09T13:58:20;24.50;99.90
14769;DHT22;7476;49.404;11.152;2022-09-09T14:00:48;23.40;99.90
14769;DHT22;7476;49.404;11.152;2022-09-09T14:03:15;22.30;99.90
14769;DHT22;7476;49.404;11.152;2022-09-09T14:05:44;21.80;99.90
14769;DHT22;7476;49.404;11.152;2022-09-09T14:08:16;21.40;99.90
14769;DHT22;7476;49.404;11.152;2022-09-09T14:10:45;20.60;99.90
14769;DHT22;7476;49.404;11.152;2022-09-09T14:13:13;20.30;99.90
14769;DHT22;7476;49.404;11.152;2022-09-09T14:15:41;20.40;99.90
14769;DHT22;7476;49.404;11.152;2022-09-09T14:18:10;20.40;99.90
14769;DHT22;7476;49.404;11.152;2022-09-09T14:20:37;19.90;99.90
14769;DHT22;7476;49.404;11.152;2022-09-09T14:23:04;19.40;99.90
14769;DHT22;7476;49.404;11.152;2022-09-09T14:25:31;19.00;99.90
14769;DHT22;7476;49.404;11.152;2022-09-09T14:27:58;18.40;99.90
14769;DHT22;7476;49.404;11.152;2022-09-09T14:30:27;18.40;99.90
14769;DHT22;7476;49.404;11.152;2022-09-09T14:32:53;18.70;99.90
14769;DHT22;7476;49.404;11.152;2022-09-09T14:35:20;19.10;99.90
14769;DHT22;7476;49.404;11.152;2022-09-09T14:37:47;20.60;99.90
14769;DHT22;7476;49.404;11.152;2022-09-09T14:40:14;21.30;99.90
14769;DHT22;7476;49.404;11.152;2022-09-09T14:42:41;21.00;99.90
14769;DHT22;7476;49.404;11.152;2022-09-09T14:45:09;20.40;99.90
14769;DHT22;7476;49.404;11.152;2022-09-09T14:47:37;19.80;99.90
14769;DHT22;7476;49.404;11.152;2022-09-09T14:50:05;19.40;99.90
14769;DHT22;7476;49.404;11.152;2022-09-09T14:52:33;19.00;99.90
14769;DHT22;7476;49.404;11.152;2022-09-09T14:55:00;19.00;99.90
14769;DHT22;7476;49.404;11.152;2022-09-09T14:57:26;19.40;99.90
14769;DHT22;7476;49.404;11.152;2022-09-09T14:59:53;20.30;99.90
14769;DHT22;7476;49.404;11.152;2022-09-09T15:02:20;20.90;99.90
14769;DHT22;7476;49.404;11.152;2022-09-09T15:04:48;21.20;99.90
14769;DHT22;7476;49.404;11.152;2022-09-09T15:07:15;21.00;99.90
14769;DHT22;7476;49.404;11.152;2022-09-09T15:09:42;21.10;99.90
14769;DHT22;7476;49.404;11.152;2022-09-09T15:12:09;21.30;99.90
14769;DHT22;7476;49.404;11.152;2022-09-09T15:14:35;21.30;99.90
14769;DHT22;7476;49.404;11.152;2022-09-09T15:17:03;21.40;99.90
14769;DHT22;7476;49.404;11.152;2022-09-09T15:19:30;23.10;99.90
14769;DHT22;7476;49.404;11.152;2022-09-09T15:21:59;26.10;99.90
14769;DHT22;7476;49.404;11.152;2022-09-09T15:24:25;28.60;99.90
14769;DHT22;7476;49.404;11.152;2022-09-09T15:26:52;29.80;99.80
14769;DHT22;7476;49.404;11.152;2022-09-09T15:29:19;30.20;99.20
14769;DHT22;7476;49.404;11.152;2022-09-09T15:31:46;30.30;98.40
14769;DHT22;7476;49.404;11.152;2022-09-09T15:34:13;30.10;94.80
14769;DHT22;7476;49.404;11.152;2022-09-09T15:36:41;29.70;95.40
14769;DHT22;7476;49.404;11.152;2022-09-09T15:39:10;29.30;96.10
14769;DHT22;7476;49.404;11.152;2022-09-09T15:41:38;29.00;96.30
14769;DHT22;7476;49.404;11.152;2022-09-09T15:44:05;29.40;95.40
14769;DHT22;7476;49.404;11.152;2022-09-09T15:46:33;30.50;95.70
14769;DHT22;7476;49.404;11.152;2022-09-09T15:49:04;30.60;92.90
14769;DHT22;7476;49.404;11.152;2022-09-09T15:51:31;29.10;92.60